Randall, Iowa
Current Conditions -  °F | °C
As of 4:53 AM on Saturday 25 Oct 2014 (Local Time) from KAMW Reporting Station
Clear Clear  
Wind Chill: 45°   Ceiling: Unl
Heat Index: 48°   Visibility: 10mi
Dew Point: 43°   Wind: 6mph
Humidity: 83%   Direction: 330°NNW
Pressure: 30"   Gusts: NA
Location:  42.24°N, 93.6°W
Report Text: KAMW 250953Z AUTO 33005KT 10SM CLR 09/06 A3000 RMK AO2 SLP155 T00890061
Loading
Personal Weather Stations






























Interactive Weather Map
Tropical Storm Tracking
New forecast layout! Learn more

10-Day Weather Forecast

Advertisements
Track Severe Weather on mobile